^^
Station Historical Data
Daily Summary for July 16, 2017 Units:  Both    English   Metric
« Previous Day
Next Day »
Daily Weekly Monthly Yearly Custom
  High: Low: Average:
Temperature: 75.7 °F /  24.3 °C 37.2 °F /  2.9 °C 55.3 °F /  12.9 °C
Dew Point: 26.2 °F /  -3.2 °C 5.5 °F /  -14.7 °C 15.2 °F /  -9.3 °C
Humidity: 47% 7% 25%
Wind Speed: 8.9mph /  14.3km/h - 1mph /  1.6km/h
Wind Gust: 10.0mph /  16.1km/h - -
Wind- - SW
Pressure: 30.41 in /  1029.7 hPa 30.24 in /  1023.9 hPa -
Precipitation: 0.00 in /  0 mm    
Historical Graphs
 
 
Tabular Data for July 16, 2017
Time Temperature Dew Point Pressure Wind Wind Speed Wind Gust Humidity Rainfall Rate (Hourly) solar Conditions
00:04 47.1 °F /  8.4 °C 25.7 °F /  -3.5 °C 30.27in /  1024.9hPa Calm     43% 0.00in /  0mm 0.0 W/m2
00:10 47.1 °F /  8.4 °C 26.2 °F /  -3.2 °C 30.27in /  1024.9hPa Calm     44% 0.00in /  0mm 0.0 W/m2
00:17 46.9 °F /  8.3 °C 25.5 °F /  -3.6 °C 30.27in /  1024.9hPa Calm     43% 0.00in /  0mm 0.0 W/m2
00:23 46.9 °F /  8.3 °C 25.0 °F /  -3.9 °C 30.27in /  1024.9hPa Calm     42% 0.00in /  0mm 0.0 W/m2
00:29 47.1 °F /  8.4 °C 25.2 °F /  -3.8 °C 30.27in /  1024.9hPa Calm     42% 0.00in /  0mm 0.0 W/m2
00:35 47.1 °F /  8.4 °C 25.2 °F /  -3.8 °C 30.28in /  1025.3hPa Calm     42% 0.00in /  0mm 0.0 W/m2
00:41 46.9 °F /  8.3 °C 25.5 °F /  -3.6 °C 30.27in /  1024.9hPa Calm     43% 0.00in /  0mm 0.0 W/m2
00:47 46.8 °F /  8.2 °C 24.8 °F /  -4 °C 30.27in /  1024.9hPa Calm     42% 0.00in /  0mm 0.0 W/m2
00:53 46.6 °F /  8.1 °C 24.8 °F /  -4 °C 30.27in /  1024.9hPa Calm     42% 0.00in /  0mm 0.0 W/m2
00:59 46.2 °F /  7.9 °C 25.0 °F /  -3.9 °C 30.27in /  1024.9hPa Calm     43% 0.00in /  0mm 0.0 W/m2
01:05 45.9 °F /  7.7 °C 25.2 °F /  -3.8 °C 30.27in /  1024.9hPa Calm     44% 0.00in /  0mm 0.0 W/m2
01:12 45.7 °F /  7.6 °C 25.5 °F /  -3.6 °C 30.27in /  1024.9hPa Calm     45% 0.00in /  0mm 0.0 W/m2
01:18 45.1 °F /  7.3 °C 25.0 °F /  -3.9 °C 30.27in /  1024.9hPa Calm     45% 0.00in /  0mm 0.0 W/m2
01:24 44.8 °F /  7.1 °C 24.8 °F /  -4 °C 30.27in /  1024.9hPa Calm     45% 0.00in /  0mm 0.0 W/m2
01:30 44.4 °F /  6.9 °C 24.4 °F /  -4.2 °C 30.27in /  1024.9hPa Calm     45% 0.00in /  0mm 0.0 W/m2
01:36 44.1 °F /  6.7 °C 24.1 °F /  -4.4 °C 30.27in /  1024.9hPa Calm     45% 0.00in /  0mm 0.0 W/m2
01:42 43.9 °F /  6.6 °C 24.4 °F /  -4.2 °C 30.27in /  1024.9hPa Calm     46% 0.00in /  0mm 0.0 W/m2
01:49 43.7 °F /  6.5 °C 24.3 °F /  -4.3 °C 30.27in /  1024.9hPa Calm     46% 0.00in /  0mm 0.0 W/m2
01:55 43.5 °F /  6.4 °C 24.1 °F /  -4.4 °C 30.27in /  1024.9hPa Calm     46% 0.00in /  0mm 0.0 W/m2
02:01 43.5 °F /  6.4 °C 24.1 °F /  -4.4 °C 30.27in /  1024.9hPa Calm     46% 0.00in /  0mm 0.0 W/m2
02:07 43.5 °F /  6.4 °C 24.1 °F /  -4.4 °C 30.27in /  1024.9hPa Calm     46% 0.00in /  0mm 0.0 W/m2
02:13 43.3 °F /  6.3 °C 23.4 °F /  -4.8 °C 30.27in /  1024.9hPa Calm     45% 0.00in /  0mm 0.0 W/m2
02:19 43.3 °F /  6.3 °C 23.4 °F /  -4.8 °C 30.27in /  1024.9hPa Calm     45% 0.00in /  0mm 0.0 W/m2
02:25 43.0 °F /  6.1 °C 23.5 °F /  -4.7 °C 30.27in /  1024.9hPa Calm     46% 0.00in /  0mm 0.0 W/m2
02:32 43.0 °F /  6.1 °C 24.1 °F /  -4.4 °C 30.27in /  1024.9hPa Calm     47% 0.00in /  0mm 0.0 W/m2
02:38 42.8 °F /  6 °C 23.0 °F /  -5 °C 30.27in /  1024.9hPa Calm     45% 0.00in /  0mm 0.0 W/m2
02:44 42.6 °F /  5.9 °C 23.4 °F /  -4.8 °C 30.27in /  1024.9hPa Calm     46% 0.00in /  0mm 0.0 W/m2
02:50 42.6 °F /  5.9 °C 23.4 °F /  -4.8 °C 30.27in /  1024.9hPa Calm     46% 0.00in /  0mm 0.0 W/m2
02:56 42.4 °F /  5.8 °C 23.2 °F /  -4.9 °C 30.27in /  1024.9hPa Calm     46% 0.00in /  0mm 0.0 W/m2
03:02 42.3 °F /  5.7 °C 23.0 °F /  -5 °C 30.27in /  1024.9hPa Calm     46% 0.00in /  0mm 0.0 W/m2
03:08 42.3 °F /  5.7 °C 23.0 °F /  -5 °C 30.27in /  1024.9hPa Calm     46% 0.00in /  0mm 0.0 W/m2
03:15 42.4 °F /  5.8 °C 22.1 °F /  -5.5 °C 30.27in /  1024.9hPa Calm     44% 0.00in /  0mm 0.0 W/m2
03:21 42.6 °F /  5.9 °C 20.5 °F /  -6.4 °C 30.27in /  1024.9hPa Calm     41% 0.00in /  0mm 0.0 W/m2
03:27 42.8 °F /  6 °C 21.4 °F /  -5.9 °C 30.27in /  1024.9hPa Calm     42% 0.00in /  0mm 0.0 W/m2
03:33 42.8 °F /  6 °C 21.9 °F /  -5.6 °C 30.28in /  1025.3hPa Calm     43% 0.00in /  0mm 0.0 W/m2
03:39 42.6 °F /  5.9 °C 21.7 °F /  -5.7 °C 30.28in /  1025.3hPa Calm     43% 0.00in /  0mm 0.0 W/m2
03:45 42.6 °F /  5.9 °C 20.5 °F /  -6.4 °C 30.28in /  1025.3hPa Calm     41% 0.00in /  0mm 0.0 W/m2
03:52 42.4 °F /  5.8 °C 21.0 °F /  -6.1 °C 30.28in /  1025.3hPa Calm     42% 0.00in /  0mm 0.0 W/m2
03:58 42.3 °F /  5.7 °C 21.4 °F /  -5.9 °C 30.28in /  1025.3hPa Calm     43% 0.00in /  0mm 0.0 W/m2
04:04 42.1 °F /  5.6 °C 21.2 °F /  -6 °C 30.28in /  1025.3hPa Calm     43% 0.00in /  0mm 0.0 W/m2
04:10 41.7 °F /  5.4 °C 20.8 °F /  -6.2 °C 30.28in /  1025.3hPa Calm     43% 0.00in /  0mm 0.0 W/m2
04:16 41.4 °F /  5.2 °C 21.0 °F /  -6.1 °C 30.28in /  1025.3hPa Calm     44% 0.00in /  0mm 0.0 W/m2
04:22 41.2 °F /  5.1 °C 20.8 °F /  -6.2 °C 30.29in /  1025.6hPa Calm     44% 0.00in /  0mm 0.0 W/m2
04:28 40.8 °F /  4.9 °C 21.2 °F /  -6 °C 30.28in /  1025.3hPa Calm     45% 0.00in /  0mm 0.0 W/m2
04:35 40.5 °F /  4.7 °C 20.8 °F /  -6.2 °C 30.29in /  1025.6hPa Calm     45% 0.00in /  0mm 0.0 W/m2
04:41 40.3 °F /  4.6 °C 20.7 °F /  -6.3 °C 30.29in /  1025.6hPa Calm     45% 0.00in /  0mm 0.0 W/m2
04:47 39.9 °F /  4.4 °C 20.3 °F /  -6.5 °C 30.29in /  1025.6hPa Calm     45% 0.00in /  0mm 0.0 W/m2
04:53 39.7 °F /  4.3 °C 21.2 °F /  -6 °C 30.29in /  1025.6hPa Calm     47% 0.00in /  0mm 0.0 W/m2
04:59 39.6 °F /  4.2 °C 20.5 °F /  -6.4 °C 30.29in /  1025.6hPa Calm     46% 0.00in /  0mm 0.0 W/m2
05:03 39.6 °F /  4.2 °C 21.0 °F /  -6.1 °C 30.29in /  1025.6hPa Calm     47% 0.00in /  0mm 0.0 W/m2
05:09 39.4 °F /  4.1 °C 20.8 °F /  -6.2 °C 30.29in /  1025.6hPa Calm     47% 0.00in /  0mm 0.0 W/m2
05:16 39.0 °F /  3.9 °C 19.9 °F /  -6.7 °C 30.29in /  1025.6hPa Calm     46% 0.00in /  0mm 0.0 W/m2
05:22 39.0 °F /  3.9 °C 19.9 °F /  -6.7 °C 30.29in /  1025.6hPa Calm     46% 0.00in /  0mm 0.0 W/m2
05:28 38.8 °F /  3.8 °C 19.4 °F /  -7 °C 30.29in /  1025.6hPa Calm     45% 0.00in /  0mm 0.0 W/m2
05:34 38.7 °F /  3.7 °C 19.6 °F /  -6.9 °C 30.30in /  1026hPa Calm     46% 0.00in /  0mm 0.0 W/m2
05:40 38.5 °F /  3.6 °C 19.6 °F /  -6.9 °C 30.30in /  1026hPa Calm     46% 0.00in /  0mm 0.0 W/m2
05:46 38.3 °F /  3.5 °C 19.4 °F /  -7 °C 30.30in /  1026hPa Calm     46% 0.00in /  0mm 0.0 W/m2
05:52 38.1 °F /  3.4 °C 19.2 °F /  -7.1 °C 30.30in /  1026hPa Calm     46% 0.00in /  0mm 0.0 W/m2
05:58 37.9 °F /  3.3 °C 18.5 °F /  -7.5 °C 30.30in /  1026hPa Calm     45% 0.00in /  0mm 0.0 W/m2
06:05 37.8 °F /  3.2 °C 17.2 °F /  -8.2 °C 30.30in /  1026hPa Calm     43% 0.00in /  0mm 0.0 W/m2
06:11 37.8 °F /  3.2 °C 18.3 °F /  -7.6 °C 30.30in /  1026hPa Calm     45% 0.00in /  0mm 0.0 W/m2
06:17 37.6 °F /  3.1 °C 17.6 °F /  -8 °C 30.30in /  1026hPa Calm     44% 0.00in /  0mm 0.0 W/m2
06:23 37.4 °F /  3 °C 16.9 °F /  -8.4 °C 30.30in /  1026hPa Calm     43% 0.00in /  0mm 0.0 W/m2
06:29 37.2 °F /  2.9 °C 16.2 °F /  -8.8 °C 30.30in /  1026hPa Calm     42% 0.00in /  0mm 0.0 W/m2
06:35 37.2 °F /  2.9 °C 15.6 °F /  -9.1 °C 30.30in /  1026hPa Calm     41% 0.00in /  0mm 5.0 W/m2
06:42 37.2 °F /  2.9 °C 15.6 °F /  -9.1 °C 30.31in /  1026.3hPa Calm     41% 0.00in /  0mm 7.0 W/m2
06:48 37.2 °F /  2.9 °C 15.1 °F /  -9.4 °C 30.31in /  1026.3hPa Calm     40% 0.00in /  0mm 9.0 W/m2
06:54 37.2 °F /  2.9 °C 15.1 °F /  -9.4 °C 30.31in /  1026.3hPa Calm     40% 0.00in /  0mm 11.0 W/m2
07:00 37.2 °F /  2.9 °C 15.1 °F /  -9.4 °C 30.32in /  1026.6hPa Calm     40% 0.00in /  0mm 12.0 W/m2
07:06 37.2 °F /  2.9 °C 14.5 °F /  -9.7 °C 30.32in /  1026.6hPa Calm     39% 0.00in /  0mm 12.0 W/m2
07:12 37.2 °F /  2.9 °C 14.5 °F /  -9.7 °C 30.32in /  1026.6hPa Calm     39% 0.00in /  0mm 14.0 W/m2
07:18 37.6 °F /  3.1 °C 14.9 °F /  -9.5 °C 30.32in /  1026.6hPa Calm     39% 0.00in /  0mm 14.0 W/m2
07:24 37.8 °F /  3.2 °C 15.1 °F /  -9.4 °C 30.32in /  1026.6hPa Calm     39% 0.00in /  0mm 16.0 W/m2
07:31 38.3 °F /  3.5 °C 14.9 °F /  -9.5 °C 30.32in /  1026.6hPa Calm     38% 0.00in /  0mm 18.0 W/m2
07:37 38.8 °F /  3.8 °C 15.4 °F /  -9.2 °C 30.32in /  1026.6hPa Calm     38% 0.00in /  0mm 19.0 W/m2
07:43 40.6 °F /  4.8 °C 13.1 °F /  -10.5 °C 30.33in /  1027hPa Calm     32% 0.00in /  0mm 19.0 W/m2
07:49 42.6 °F /  5.9 °C 11.8 °F /  -11.2 °C 30.33in /  1027hPa Calm     28% 0.00in /  0mm 21.0 W/m2
07:55 44.8 °F /  7.1 °C 11.1 °F /  -11.6 °C 30.34in /  1027.3hPa Calm     25% 0.00in /  0mm 21.0 W/m2
08:01 46.9 °F /  8.3 °C 11.1 °F /  -11.6 °C 30.34in /  1027.3hPa Calm     23% 0.00in /  0mm 21.0 W/m2
08:07 49.3 °F /  9.6 °C 10.9 °F /  -11.7 °C 30.34in /  1027.3hPa Calm     21% 0.00in /  0mm 26.0 W/m2
08:13 52.0 °F /  11.1 °C 9.7 °F /  -12.4 °C 30.34in /  1027.3hPa Calm   3.0mph /  4.8km/h 18% 0.00in /  0mm 309.0 W/m2
08:19 54.1 °F /  12.3 °C 9.0 °F /  -12.8 °C 30.35in /  1027.7hPa Calm   3.0mph /  4.8km/h 16% 0.00in /  0mm 353.0 W/m2
08:26 56.1 °F /  13.4 °C 7.5 °F /  -13.6 °C 30.35in /  1027.7hPa SSW 0.9mph /  1.4km/h 2.0mph /  3.2km/h 14% 0.00in /  0mm 373.0 W/m2
08:32 57.6 °F /  14.2 °C 8.8 °F /  -12.9 °C 30.35in /  1027.7hPa SW 0.9mph /  1.4km/h 3.0mph /  4.8km/h 14% 0.00in /  0mm 390.0 W/m2
08:38 59.2 °F /  15.1 °C 8.4 °F /  -13.1 °C 30.35in /  1027.7hPa SSW 0.9mph /  1.4km/h 3.0mph /  4.8km/h 13% 0.00in /  0mm 410.0 W/m2
08:44 60.3 °F /  15.7 °C 7.3 °F /  -13.7 °C 30.35in /  1027.7hPa Calm   2.0mph /  3.2km/h 12% 0.00in /  0mm 427.0 W/m2
08:50 61.3 °F /  16.3 °C 10.0 °F /  -12.2 °C 30.36in /  1028hPa Calm   1.0mph /  1.6km/h 13% 0.00in /  0mm 448.0 W/m2
08:56 62.1 °F /  16.7 °C 10.6 °F /  -11.9 °C 30.35in /  1027.7hPa Calm   2.0mph /  3.2km/h 13% 0.00in /  0mm 466.0 W/m2
09:02 62.8 °F /  17.1 °C 9.3 °F /  -12.6 °C 30.35in /  1027.7hPa Calm   1.0mph /  1.6km/h 12% 0.00in /  0mm 482.0 W/m2
09:08 63.3 °F /  17.4 °C 9.9 °F /  -12.3 °C 30.35in /  1027.7hPa West 0.9mph /  1.4km/h 2.0mph /  3.2km/h 12% 0.00in /  0mm 497.0 W/m2
09:15 64.0 °F /  17.8 °C 8.4 °F /  -13.1 °C 30.35in /  1027.7hPa WSW 0.9mph /  1.4km/h 3.0mph /  4.8km/h 11% 0.00in /  0mm 515.0 W/m2
09:21 64.8 °F /  18.2 °C 7.0 °F /  -13.9 °C 30.35in /  1027.7hPa WSW 0.9mph /  1.4km/h 7.0mph /  11.3km/h 10% 0.00in /  0mm 533.0 W/m2
09:27 65.1 °F /  18.4 °C 9.3 °F /  -12.6 °C 30.35in /  1027.7hPa WNW 0.9mph /  1.4km/h 7.0mph /  11.3km/h 11% 0.00in /  0mm 548.0 W/m2
09:33 65.7 °F /  18.7 °C 9.7 °F /  -12.4 °C 30.35in /  1027.7hPa SSW 0.9mph /  1.4km/h 5.0mph /  8km/h 11% 0.00in /  0mm 561.0 W/m2
09:39 66.0 °F /  18.9 °C 7.9 °F /  -13.4 °C 30.35in /  1027.7hPa WSW 4.0mph /  6.4km/h 7.0mph /  11.3km/h 10% 0.00in /  0mm 575.0 W/m2
09:45 66.4 °F /  19.1 °C 8.1 °F /  -13.3 °C 30.35in /  1027.7hPa West 2.0mph /  3.2km/h 7.0mph /  11.3km/h 10% 0.00in /  0mm 592.0 W/m2
09:51 66.6 °F /  19.2 °C 5.9 °F /  -14.5 °C 30.35in /  1027.7hPa West 6.0mph /  9.7km/h 8.0mph /  12.9km/h 9% 0.00in /  0mm 605.0 W/m2
09:58 66.7 °F /  19.3 °C 8.4 °F /  -13.1 °C 30.35in /  1027.7hPa Calm   5.0mph /  8km/h 10% 0.00in /  0mm 617.0 W/m2
10:04 67.3 °F /  19.6 °C 6.4 °F /  -14.2 °C 30.35in /  1027.7hPa West 2.0mph /  3.2km/h 5.0mph /  8km/h 9% 0.00in /  0mm 624.0 W/m2
10:10 67.5 °F /  19.7 °C 9.0 °F /  -12.8 °C 30.35in /  1027.7hPa Calm   4.0mph /  6.4km/h 10% 0.00in /  0mm 638.0 W/m2
10:16 67.6 °F /  19.8 °C 9.1 °F /  -12.7 °C 30.35in /  1027.7hPa West 8.9mph /  14.3km/h 9.0mph /  14.5km/h 10% 0.00in /  0mm 649.0 W/m2
10:22 67.8 °F /  19.9 °C 11.3 °F /  -11.5 °C 30.35in /  1027.7hPa SW 0.9mph /  1.4km/h 5.0mph /  8km/h 11% 0.00in /  0mm 661.0 W/m2
10:28 68.4 °F /  20.2 °C 11.8 °F /  -11.2 °C 30.35in /  1027.7hPa WNW 0.9mph /  1.4km/h 3.0mph /  4.8km/h 11% 0.00in /  0mm 666.0 W/m2
10:34 68.9 °F /  20.5 °C 14.2 °F /  -9.9 °C 30.35in /  1027.7hPa NW 0.9mph /  1.4km/h 7.0mph /  11.3km/h 12% 0.00in /  0mm 677.0 W/m2
10:41 69.3 °F /  20.7 °C 12.6 °F /  -10.8 °C 30.34in /  1027.3hPa NNW 0.9mph /  1.4km/h 3.0mph /  4.8km/h 11% 0.00in /  0mm 682.0 W/m2
10:47 69.6 °F /  20.9 °C 14.7 °F /  -9.6 °C 30.34in /  1027.3hPa WSW 2.0mph /  3.2km/h 5.0mph /  8km/h 12% 0.00in /  0mm 693.0 W/m2
10:53 70.0 °F /  21.1 °C 13.1 °F /  -10.5 °C 30.34in /  1027.3hPa SW 4.9mph /  7.9km/h 7.0mph /  11.3km/h 11% 0.00in /  0mm 700.0 W/m2
10:59 70.2 °F /  21.2 °C 15.1 °F /  -9.4 °C 30.33in /  1027hPa WNW 2.0mph /  3.2km/h 8.0mph /  12.9km/h 12% 0.00in /  0mm 705.0 W/m2
11:05 70.2 °F /  21.2 °C 13.1 °F /  -10.5 °C 30.33in /  1027hPa Calm   6.0mph /  9.7km/h 11% 0.00in /  0mm 712.0 W/m2
11:11 70.9 °F /  21.6 °C 13.8 °F /  -10.1 °C 30.33in /  1027hPa Calm   3.0mph /  4.8km/h 11% 0.00in /  0mm 717.0 W/m2
11:17 71.1 °F /  21.7 °C 15.8 °F /  -9 °C 30.32in /  1026.6hPa Calm   3.0mph /  4.8km/h 12% 0.00in /  0mm 719.0 W/m2
11:23 71.4 °F /  21.9 °C 12.0 °F /  -11.1 °C 30.32in /  1026.6hPa WNW 0.9mph /  1.4km/h 3.0mph /  4.8km/h 10% 0.00in /  0mm 724.0 W/m2
11:30 72.1 °F /  22.3 °C 14.7 °F /  -9.6 °C 30.32in /  1026.6hPa Calm   4.0mph /  6.4km/h 11% 0.00in /  0mm 728.0 W/m2
11:36 72.1 °F /  22.3 °C 12.6 °F /  -10.8 °C 30.32in /  1026.6hPa Calm   3.0mph /  4.8km/h 10% 0.00in /  0mm 731.0 W/m2
11:42 72.1 °F /  22.3 °C 10.2 °F /  -12.1 °C 30.32in /  1026.6hPa Calm   5.0mph /  8km/h 9% 0.00in /  0mm 731.0 W/m2
11:46 72.3 °F /  22.4 °C 12.7 °F /  -10.7 °C 30.32in /  1026.6hPa West 0.9mph /  1.4km/h 3.0mph /  4.8km/h 10% 0.00in /  0mm 733.0 W/m2
11:52 72.3 °F /  22.4 °C 10.2 °F /  -12.1 °C 30.31in /  1026.3hPa Calm   4.0mph /  6.4km/h 9% 0.00in /  0mm 735.0 W/m2
11:58 72.1 °F /  22.3 °C 10.2 °F /  -12.1 °C 30.32in /  1026.6hPa WSW 4.9mph /  7.9km/h 7.0mph /  11.3km/h 9% 0.00in /  0mm 733.0 W/m2
12:04 72.0 °F /  22.2 °C 12.4 °F /  -10.9 °C 30.31in /  1026.3hPa NW 2.0mph /  3.2km/h 3.0mph /  4.8km/h 10% 0.00in /  0mm 735.0 W/m2
12:10 72.3 °F /  22.4 °C 7.7 °F /  -13.5 °C 30.31in /  1026.3hPa Calm   2.0mph /  3.2km/h 8% 0.00in /  0mm 729.0 W/m2
12:17 72.7 °F /  22.6 °C 7.9 °F /  -13.4 °C 30.31in /  1026.3hPa Calm   1.0mph /  1.6km/h 8% 0.00in /  0mm 728.0 W/m2
12:23 72.9 °F /  22.7 °C 8.1 °F /  -13.3 °C 30.30in /  1026hPa Calm   2.0mph /  3.2km/h 8% 0.00in /  0mm 728.0 W/m2
12:29 73.0 °F /  22.8 °C 8.2 °F /  -13.2 °C 30.30in /  1026hPa Calm   2.0mph /  3.2km/h 8% 0.00in /  0mm 722.0 W/m2
12:35 73.4 °F /  23 °C 5.5 °F /  -14.7 °C 30.30in /  1026hPa NNW 2.9mph /  4.7km/h 5.0mph /  8km/h 7% 0.00in /  0mm 717.0 W/m2
12:41 73.6 °F /  23.1 °C 8.6 °F /  -13 °C 30.29in /  1025.6hPa WSW 4.0mph /  6.4km/h 5.0mph /  8km/h 8% 0.00in /  0mm 712.0 W/m2
12:47 73.0 °F /  22.8 °C 8.2 °F /  -13.2 °C 30.29in /  1025.6hPa Calm   3.0mph /  4.8km/h 8% 0.00in /  0mm 707.0 W/m2
12:53 73.2 °F /  22.9 °C 10.9 °F /  -11.7 °C 30.29in /  1025.6hPa WSW 0.9mph /  1.4km/h 4.0mph /  6.4km/h 9% 0.00in /  0mm 698.0 W/m2
12:59 73.8 °F /  23.2 °C 8.8 °F /  -12.9 °C 30.28in /  1025.3hPa Calm   4.0mph /  6.4km/h 8% 0.00in /  0mm 689.0 W/m2
13:06 74.3 °F /  23.5 °C 9.1 °F /  -12.7 °C 30.28in /  1025.3hPa Calm   4.0mph /  6.4km/h 8% 0.00in /  0mm 682.0 W/m2
13:12 74.3 °F /  23.5 °C 9.1 °F /  -12.7 °C 30.28in /  1025.3hPa Calm   4.0mph /  6.4km/h 8% 0.00in /  0mm 673.0 W/m2
13:18 74.3 °F /  23.5 °C 9.1 °F /  -12.7 °C 30.27in /  1024.9hPa Calm   3.0mph /  4.8km/h 8% 0.00in /  0mm 664.0 W/m2
13:24 74.3 °F /  23.5 °C 9.1 °F /  -12.7 °C 30.27in /  1024.9hPa Calm   1.0mph /  1.6km/h 8% 0.00in /  0mm 654.0 W/m2
13:30 74.5 °F /  23.6 °C 12.0 °F /  -11.1 °C 30.27in /  1024.9hPa Calm   2.0mph /  3.2km/h 9% 0.00in /  0mm 643.0 W/m2
13:36 75.0 °F /  23.9 °C 12.4 °F /  -10.9 °C 30.26in /  1024.6hPa Calm   1.0mph /  1.6km/h 9% 0.00in /  0mm 631.0 W/m2
13:42 75.4 °F /  24.1 °C 10.0 °F /  -12.2 °C 30.26in /  1024.6hPa NW 2.9mph /  4.7km/h 5.0mph /  8km/h 8% 0.00in /  0mm 615.0 W/m2
13:48 75.6 °F /  24.2 °C 10.0 °F /  -12.2 °C 30.26in /  1024.6hPa NNW 2.0mph /  3.2km/h 2.0mph /  3.2km/h 8% 0.00in /  0mm 606.0 W/m2
13:54 75.6 °F /  24.2 °C 10.0 °F /  -12.2 °C 30.25in /  1024.3hPa WSW 2.9mph /  4.7km/h 4.0mph /  6.4km/h 8% 0.00in /  0mm 594.0 W/m2
14:01 75.0 °F /  23.9 °C 12.4 °F /  -10.9 °C 30.25in /  1024.3hPa NNW 2.0mph /  3.2km/h 4.0mph /  6.4km/h 9% 0.00in /  0mm 582.0 W/m2
14:07 75.4 °F /  24.1 °C 10.0 °F /  -12.2 °C 30.25in /  1024.3hPa NNW 4.9mph /  7.9km/h 5.0mph /  8km/h 8% 0.00in /  0mm 568.0 W/m2
14:13 75.6 °F /  24.2 °C 12.7 °F /  -10.7 °C 30.25in /  1024.3hPa Calm   2.0mph /  3.2km/h 9% 0.00in /  0mm 554.0 W/m2
14:19 75.7 °F /  24.3 °C 10.2 °F /  -12.1 °C 30.25in /  1024.3hPa Calm   2.0mph /  3.2km/h 8% 0.00in /  0mm 540.0 W/m2
14:25 75.6 °F /  24.2 °C 10.0 °F /  -12.2 °C 30.25in /  1024.3hPa NW 2.9mph /  4.7km/h 7.0mph /  11.3km/h 8% 0.00in /  0mm 526.0 W/m2
14:31 75.6 °F /  24.2 °C 10.0 °F /  -12.2 °C 30.25in /  1024.3hPa NNW 4.0mph /  6.4km/h 7.0mph /  11.3km/h 8% 0.00in /  0mm 508.0 W/m2
14:38 75.6 °F /  24.2 °C 10.0 °F /  -12.2 °C 30.25in /  1024.3hPa NE 0.9mph /  1.4km/h 6.0mph /  9.7km/h 8% 0.00in /  0mm 490.0 W/m2
14:44 75.4 °F /  24.1 °C 10.0 °F /  -12.2 °C 30.25in /  1024.3hPa North 2.0mph /  3.2km/h 4.0mph /  6.4km/h 8% 0.00in /  0mm 473.0 W/m2
14:50 75.7 °F /  24.3 °C 12.9 °F /  -10.6 °C 30.25in /  1024.3hPa SW 0.9mph /  1.4km/h 5.0mph /  8km/h 9% 0.00in /  0mm 457.0 W/m2
14:56 75.7 °F /  24.3 °C 12.9 °F /  -10.6 °C 30.25in /  1024.3hPa Calm   8.0mph /  12.9km/h 9% 0.00in /  0mm 441.0 W/m2
15:02 75.6 °F /  24.2 °C 12.7 °F /  -10.7 °C 30.25in /  1024.3hPa Calm   6.0mph /  9.7km/h 9% 0.00in /  0mm 425.0 W/m2
15:08 75.2 °F /  24 °C 12.6 °F /  -10.8 °C 30.24in /  1023.9hPa NNW 0.9mph /  1.4km/h 4.0mph /  6.4km/h 9% 0.00in /  0mm 406.0 W/m2
15:14 74.8 °F /  23.8 °C 12.2 °F /  -11 °C 30.25in /  1024.3hPa NW 0.9mph /  1.4km/h 7.0mph /  11.3km/h 9% 0.00in /  0mm 388.0 W/m2
15:20 74.8 °F /  23.8 °C 12.2 °F /  -11 °C 30.25in /  1024.3hPa WNW 0.9mph /  1.4km/h 5.0mph /  8km/h 9% 0.00in /  0mm 367.0 W/m2
15:26 74.5 °F /  23.6 °C 12.0 °F /  -11.1 °C 30.25in /  1024.3hPa West 0.9mph /  1.4km/h 3.0mph /  4.8km/h 9% 0.00in /  0mm 348.0 W/m2
15:32 74.1 °F /  23.4 °C 11.7 °F /  -11.3 °C 30.25in /  1024.3hPa NNW 8.9mph /  14.3km/h 9.0mph /  14.5km/h 9% 0.00in /  0mm 255.0 W/m2
15:39 73.8 °F /  23.2 °C 13.8 °F /  -10.1 °C 30.25in /  1024.3hPa NNW 2.0mph /  3.2km/h 3.0mph /  4.8km/h 10% 0.00in /  0mm 39.0 W/m2
15:45 73.6 °F /  23.1 °C 13.6 °F /  -10.2 °C 30.25in /  1024.3hPa North 4.9mph /  7.9km/h 9.0mph /  14.5km/h 10% 0.00in /  0mm 37.0 W/m2
15:51 73.2 °F /  22.9 °C 15.6 °F /  -9.1 °C 30.26in /  1024.6hPa NW 2.9mph /  4.7km/h 8.0mph /  12.9km/h 11% 0.00in /  0mm 35.0 W/m2
15:57 72.9 °F /  22.7 °C 15.3 °F /  -9.3 °C 30.26in /  1024.6hPa North 4.9mph /  7.9km/h 9.0mph /  14.5km/h 11% 0.00in /  0mm 33.0 W/m2
16:03 72.3 °F /  22.4 °C 14.9 °F /  -9.5 °C 30.25in /  1024.3hPa NNW 8.1mph /  13km/h 8.1mph /  13km/h 11% 0.00in /  0mm 32.0 W/m2
16:09 72.0 °F /  22.2 °C 14.5 °F /  -9.7 °C 30.26in /  1024.6hPa NW 2.9mph /  4.7km/h 7.0mph /  11.3km/h 11% 0.00in /  0mm 28.0 W/m2
16:15 71.4 °F /  21.9 °C 14.2 °F /  -9.9 °C 30.26in /  1024.6hPa North 6.0mph /  9.7km/h 8.0mph /  12.9km/h 11% 0.00in /  0mm 23.0 W/m2
16:21 71.1 °F /  21.7 °C 13.8 °F /  -10.1 °C 30.26in /  1024.6hPa NNW 6.0mph /  9.7km/h 8.0mph /  12.9km/h 11% 0.00in /  0mm 21.0 W/m2
16:28 70.7 °F /  21.5 °C 15.6 °F /  -9.1 °C 30.26in /  1024.6hPa NNW 4.0mph /  6.4km/h 7.0mph /  11.3km/h 12% 0.00in /  0mm 19.0 W/m2
16:34 70.3 °F /  21.3 °C 15.3 °F /  -9.3 °C 30.26in /  1024.6hPa North 2.9mph /  4.7km/h 7.0mph /  11.3km/h 12% 0.00in /  0mm 18.0 W/m2
16:40 70.0 °F /  21.1 °C 15.1 °F /  -9.4 °C 30.27in /  1024.9hPa North 2.9mph /  4.7km/h 6.0mph /  9.7km/h 12% 0.00in /  0mm 16.0 W/m2
16:46 69.6 °F /  20.9 °C 14.7 °F /  -9.6 °C 30.27in /  1024.9hPa NW 2.9mph /  4.7km/h 8.0mph /  12.9km/h 12% 0.00in /  0mm 16.0 W/m2
16:52 69.4 °F /  20.8 °C 14.5 °F /  -9.7 °C 30.27in /  1024.9hPa NNW 0.9mph /  1.4km/h 3.0mph /  4.8km/h 12% 0.00in /  0mm 14.0 W/m2
16:58 69.3 °F /  20.7 °C 16.3 °F /  -8.7 °C 30.28in /  1025.3hPa Calm   3.0mph /  4.8km/h 13% 0.00in /  0mm 12.0 W/m2
17:04 68.7 °F /  20.4 °C 15.8 °F /  -9 °C 30.28in /  1025.3hPa Calm   7.0mph /  11.3km/h 13% 0.00in /  0mm 11.0 W/m2
17:10 67.6 °F /  19.8 °C 16.7 °F /  -8.5 °C 30.28in /  1025.3hPa SE 0.9mph /  1.4km/h 5.0mph /  8km/h 14% 0.00in /  0mm 9.0 W/m2
17:16 66.4 °F /  19.1 °C 15.8 °F /  -9 °C 30.29in /  1025.6hPa South 4.9mph /  7.9km/h 8.0mph /  12.9km/h 14% 0.00in /  0mm 7.0 W/m2
17:23 64.9 °F /  18.3 °C 16.2 °F /  -8.8 °C 30.29in /  1025.6hPa SSE 6.9mph /  11.1km/h 9.0mph /  14.5km/h 15% 0.00in /  0mm 5.0 W/m2
17:29 64.0 °F /  17.8 °C 15.4 °F /  -9.2 °C 30.30in /  1026hPa SE 4.0mph /  6.4km/h 10.0mph /  16.1km/h 15% 0.00in /  0mm 0.0 W/m2
17:35 63.3 °F /  17.4 °C 14.9 °F /  -9.5 °C 30.29in /  1025.6hPa South 2.0mph /  3.2km/h 2.0mph /  3.2km/h 15% 0.00in /  0mm 0.0 W/m2
17:41 62.4 °F /  16.9 °C 14.2 °F /  -9.9 °C 30.30in /  1026hPa Calm   4.0mph /  6.4km/h 15% 0.00in /  0mm 0.0 W/m2
17:47 61.9 °F /  16.6 °C 15.3 °F /  -9.3 °C 30.30in /  1026hPa Calm   7.0mph /  11.3km/h 16% 0.00in /  0mm 0.0 W/m2
17:53 61.3 °F /  16.3 °C 14.7 °F /  -9.6 °C 30.30in /  1026hPa SSE 4.0mph /  6.4km/h 6.0mph /  9.7km/h 16% 0.00in /  0mm 0.0 W/m2
17:59 61.0 °F /  16.1 °C 14.5 °F /  -9.7 °C 30.30in /  1026hPa South 6.0mph /  9.7km/h 7.0mph /  11.3km/h 16% 0.00in /  0mm 0.0 W/m2
18:06 60.4 °F /  15.8 °C 14.0 °F /  -10 °C 30.31in /  1026.3hPa SSW 0.9mph /  1.4km/h 5.0mph /  8km/h 16% 0.00in /  0mm 0.0 W/m2
18:12 60.1 °F /  15.6 °C 13.6 °F /  -10.2 °C 30.31in /  1026.3hPa SW 2.0mph /  3.2km/h 3.0mph /  4.8km/h 16% 0.00in /  0mm 0.0 W/m2
18:18 59.5 °F /  15.3 °C 13.3 °F /  -10.4 °C 30.32in /  1026.6hPa SSE 2.0mph /  3.2km/h 6.0mph /  9.7km/h 16% 0.00in /  0mm 0.0 W/m2
18:24 59.2 °F /  15.1 °C 12.9 °F /  -10.6 °C 30.32in /  1026.6hPa South 0.9mph /  1.4km/h 6.0mph /  9.7km/h 16% 0.00in /  0mm 0.0 W/m2
18:30 58.8 °F /  14.9 °C 12.7 °F /  -10.7 °C 30.33in /  1027hPa Calm   6.0mph /  9.7km/h 16% 0.00in /  0mm 0.0 W/m2
18:36 58.5 °F /  14.7 °C 12.4 °F /  -10.9 °C 30.34in /  1027.3hPa SSW 8.1mph /  13km/h 8.1mph /  13km/h 16% 0.00in /  0mm 0.0 W/m2
18:42 57.9 °F /  14.4 °C 13.3 °F /  -10.4 °C 30.34in /  1027.3hPa South 2.9mph /  4.7km/h 4.0mph /  6.4km/h 17% 0.00in /  0mm 0.0 W/m2
18:49 57.6 °F /  14.2 °C 13.1 °F /  -10.5 °C 30.34in /  1027.3hPa SE 4.0mph /  6.4km/h 5.0mph /  8km/h 17% 0.00in /  0mm 0.0 W/m2
18:55 57.4 °F /  14.1 °C 12.9 °F /  -10.6 °C 30.35in /  1027.7hPa SE 4.0mph /  6.4km/h 9.0mph /  14.5km/h 17% 0.00in /  0mm 0.0 W/m2
19:01 57.0 °F /  13.9 °C 12.6 °F /  -10.8 °C 30.35in /  1027.7hPa SE 2.9mph /  4.7km/h 7.0mph /  11.3km/h 17% 0.00in /  0mm 0.0 W/m2
19:07 56.7 °F /  13.7 °C 13.6 °F /  -10.2 °C 30.35in /  1027.7hPa SE 2.0mph /  3.2km/h 6.0mph /  9.7km/h 18% 0.00in /  0mm 0.0 W/m2
19:13 56.5 °F /  13.6 °C 13.5 °F /  -10.3 °C 30.36in /  1028hPa SSE 0.9mph /  1.4km/h 4.0mph /  6.4km/h 18% 0.00in /  0mm 0.0 W/m2
19:19 56.1 °F /  13.4 °C 13.1 °F /  -10.5 °C 30.36in /  1028hPa SSE 2.0mph /  3.2km/h 7.0mph /  11.3km/h 18% 0.00in /  0mm 0.0 W/m2
19:25 55.9 °F /  13.3 °C 13.1 °F /  -10.5 °C 30.36in /  1028hPa ESE 4.0mph /  6.4km/h 4.0mph /  6.4km/h 18% 0.00in /  0mm 0.0 W/m2
19:31 55.6 °F /  13.1 °C 12.7 °F /  -10.7 °C 30.36in /  1028hPa SE 4.0mph /  6.4km/h 7.0mph /  11.3km/h 18% 0.00in /  0mm 0.0 W/m2
19:38 55.2 °F /  12.9 °C 13.6 °F /  -10.2 °C 30.36in /  1028hPa SSW 2.9mph /  4.7km/h 6.0mph /  9.7km/h 19% 0.00in /  0mm 0.0 W/m2
19:44 55.0 °F /  12.8 °C 13.5 °F /  -10.3 °C 30.37in /  1028.3hPa Calm   1.0mph /  1.6km/h 19% 0.00in /  0mm 0.0 W/m2
19:50 54.7 °F /  12.6 °C 13.3 °F /  -10.4 °C 30.37in /  1028.3hPa Calm   3.0mph /  4.8km/h 19% 0.00in /  0mm 0.0 W/m2
19:56 54.1 °F /  12.3 °C 14.0 °F /  -10 °C 30.37in /  1028.3hPa Calm   4.0mph /  6.4km/h 20% 0.00in /  0mm 0.0 W/m2
20:02 53.8 °F /  12.1 °C 13.6 °F /  -10.2 °C 30.37in /  1028.3hPa Calm   1.0mph /  1.6km/h 20% 0.00in /  0mm 0.0 W/m2
20:08 53.2 °F /  11.8 °C 14.4 °F /  -9.8 °C 30.37in /  1028.3hPa Calm     21% 0.00in /  0mm 0.0 W/m2
20:15 52.9 °F /  11.6 °C 14.0 °F /  -10 °C 30.37in /  1028.3hPa Calm     21% 0.00in /  0mm 0.0 W/m2
20:21 52.2 °F /  11.2 °C 14.4 °F /  -9.8 °C 30.38in /  1028.7hPa Calm   1.0mph /  1.6km/h 22% 0.00in /  0mm 0.0 W/m2
20:27 51.4 °F /  10.8 °C 13.8 °F /  -10.1 °C 30.38in /  1028.7hPa Calm   2.0mph /  3.2km/h 22% 0.00in /  0mm 0.0 W/m2
20:33 50.9 °F /  10.5 °C 14.4 °F /  -9.8 °C 30.38in /  1028.7hPa South 0.9mph /  1.4km/h 1.0mph /  1.6km/h 23% 0.00in /  0mm 0.0 W/m2
20:39 50.4 °F /  10.2 °C 14.0 °F /  -10 °C 30.38in /  1028.7hPa Calm   2.0mph /  3.2km/h 23% 0.00in /  0mm 0.0 W/m2
20:45 50.2 °F /  10.1 °C 13.8 °F /  -10.1 °C 30.38in /  1028.7hPa Calm   1.0mph /  1.6km/h 23% 0.00in /  0mm 0.0 W/m2
20:51 49.8 °F /  9.9 °C 14.5 °F /  -9.7 °C 30.38in /  1028.7hPa ESE 0.9mph /  1.4km/h 1.0mph /  1.6km/h 24% 0.00in /  0mm 0.0 W/m2
20:57 49.6 °F /  9.8 °C 14.4 °F /  -9.8 °C 30.39in /  1029hPa Calm   1.0mph /  1.6km/h 24% 0.00in /  0mm 0.0 W/m2
21:04 49.5 °F /  9.7 °C 14.2 °F /  -9.9 °C 30.38in /  1028.7hPa ENE 2.0mph /  3.2km/h 2.0mph /  3.2km/h 24% 0.00in /  0mm 0.0 W/m2
21:10 49.3 °F /  9.6 °C 14.9 °F /  -9.5 °C 30.38in /  1028.7hPa Calm   4.0mph /  6.4km/h 25% 0.00in /  0mm 0.0 W/m2
21:16 49.3 °F /  9.6 °C 14.9 °F /  -9.5 °C 30.39in /  1029hPa ENE 0.9mph /  1.4km/h 1.0mph /  1.6km/h 25% 0.00in /  0mm 0.0 W/m2
21:22 49.3 °F /  9.6 °C 15.8 °F /  -9 °C 30.39in /  1029hPa Calm   3.0mph /  4.8km/h 26% 0.00in /  0mm 0.0 W/m2
21:28 48.9 °F /  9.4 °C 15.4 °F /  -9.2 °C 30.39in /  1029hPa ENE 0.9mph /  1.4km/h 1.0mph /  1.6km/h 26% 0.00in /  0mm 0.0 W/m2
21:34 48.7 °F /  9.3 °C 15.4 °F /  -9.2 °C 30.39in /  1029hPa Calm   1.0mph /  1.6km/h 26% 0.00in /  0mm 0.0 W/m2
21:40 48.4 °F /  9.1 °C 15.1 °F /  -9.4 °C 30.40in /  1029.3hPa Calm   1.0mph /  1.6km/h 26% 0.00in /  0mm 0.0 W/m2
21:47 47.8 °F /  8.8 °C 14.5 °F /  -9.7 °C 30.40in /  1029.3hPa Calm     26% 0.00in /  0mm 0.0 W/m2
21:53 47.5 °F /  8.6 °C 15.1 °F /  -9.4 °C 30.40in /  1029.3hPa Calm   1.0mph /  1.6km/h 27% 0.00in /  0mm 0.0 W/m2
21:59 47.1 °F /  8.4 °C 15.6 °F /  -9.1 °C 30.40in /  1029.3hPa ESE 2.0mph /  3.2km/h 2.0mph /  3.2km/h 28% 0.00in /  0mm 0.0 W/m2
22:05 46.8 °F /  8.2 °C 15.4 °F /  -9.2 °C 30.40in /  1029.3hPa Calm   2.0mph /  3.2km/h 28% 0.00in /  0mm 0.0 W/m2
22:11 46.6 °F /  8.1 °C 14.4 °F /  -9.8 °C 30.40in /  1029.3hPa SSE 0.9mph /  1.4km/h 3.0mph /  4.8km/h 27% 0.00in /  0mm 0.0 W/m2
22:17 46.0 °F /  7.8 °C 14.0 °F /  -10 °C 30.40in /  1029.3hPa Calm     27% 0.00in /  0mm 0.0 W/m2
22:24 45.7 °F /  7.6 °C 14.4 °F /  -9.8 °C 30.41in /  1029.7hPa Calm     28% 0.00in /  0mm 0.0 W/m2
22:30 45.0 °F /  7.2 °C 13.8 °F /  -10.1 °C 30.40in /  1029.3hPa Calm     28% 0.00in /  0mm 0.0 W/m2
22:36 44.4 °F /  6.9 °C 14.2 °F /  -9.9 °C 30.41in /  1029.7hPa Calm     29% 0.00in /  0mm 0.0 W/m2
22:42 43.9 °F /  6.6 °C 15.3 °F /  -9.3 °C 30.41in /  1029.7hPa Calm     31% 0.00in /  0mm 0.0 W/m2
22:48 43.5 °F /  6.4 °C 14.2 °F /  -9.9 °C 30.41in /  1029.7hPa Calm     30% 0.00in /  0mm 0.0 W/m2
22:54 43.2 °F /  6.2 °C 14.5 °F /  -9.7 °C 30.41in /  1029.7hPa Calm     31% 0.00in /  0mm 0.0 W/m2
23:00 42.6 °F /  5.9 °C 14.9 °F /  -9.5 °C 30.41in /  1029.7hPa Calm     32% 0.00in /  0mm 0.0 W/m2
23:06 42.3 °F /  5.7 °C 13.8 °F /  -10.1 °C 30.41in /  1029.7hPa Calm   1.0mph /  1.6km/h 31% 0.00in /  0mm 0.0 W/m2
23:12 41.7 °F /  5.4 °C 14.0 °F /  -10 °C 30.41in /  1029.7hPa Calm   1.0mph /  1.6km/h 32% 0.00in /  0mm 0.0 W/m2
23:19 41.5 °F /  5.3 °C 14.5 °F /  -9.7 °C 30.41in /  1029.7hPa Calm     33% 0.00in /  0mm 0.0 W/m2
23:25 41.2 °F /  5.1 °C 13.5 °F /  -10.3 °C 30.41in /  1029.7hPa Calm   2.0mph /  3.2km/h 32% 0.00in /  0mm 0.0 W/m2
23:31 40.8 °F /  4.9 °C 14.0 °F /  -10 °C 30.41in /  1029.7hPa Calm     33% 0.00in /  0mm 0.0 W/m2
23:37 40.5 °F /  4.7 °C 14.4 °F /  -9.8 °C 30.41in /  1029.7hPa Calm     34% 0.00in /  0mm 0.0 W/m2
23:43 40.3 °F /  4.6 °C 14.2 °F /  -9.9 °C 30.41in /  1029.7hPa Calm   1.0mph /  1.6km/h 34% 0.00in /  0mm 0.0 W/m2
23:49 39.7 °F /  4.3 °C 14.4 °F /  -9.8 °C 30.41in /  1029.7hPa Calm   1.0mph /  1.6km/h 35% 0.00in /  0mm 0.0 W/m2
23:55 39.6 °F /  4.2 °C 14.2 °F /  -9.9 °C 30.41in /  1029.7hPa Calm     35% 0.00in /  0mm 0.0 W/m2
23:59 39.6 °F /  4.2 °C 14.7 °F /  -9.6 °C 30.41in /  1029.7hPa Calm     36% 0.00in /  0mm 0.0 W/m2
Olympia, Windhoek, Namibia
Compliments of Weather Underground - 3 mb